Nearby METAR Reports

 

MWCR - Owen Roberts, Grand Cayman
Distance from station: NNE 3mi, 4km
Updated: 18/12/2017 00:00
Few Clouds
Few Clouds
 Wind from ENE
Wind: ENE 10 mph , 17 km/h
Temperature: 79°F , 26°C
Dew Point: 75°F , 24°C
Humidity: 89%
Barometer: 1018 hPa
Clouds: Few Clouds
Visibility: 6 miles , 10 km
Cloud details: Few Clouds 1800 ft
2017/12/18 05:00 MWCR 180500Z 07009KT 9999 FEW018 26/24 Q1018
MWCB - Gerrard Smith, Cayman Brac
Distance from station: ENE 102mi, 164km
Updated: 17/12/2017 19:00
NOT Current
Few Clouds
Few Clouds
 Wind from E
Wind: E 7 mph , 11 km/h
Temperature: 79°F , 26°C
Dew Point: 72°F , 22°C
Humidity: 79%
Barometer: 1018 hPa
Clouds: Few Clouds
Visibility: 6 miles , 10 km
Cloud details: Few Clouds 2200 ft
2017/12/18 00:00 MWCB 180000Z 08006KT 9999 FEW022 26/22 Q1018
 
MUCL - Cayo Largo D Sur, Cuba
Distance from station: N 164mi, 264km
Updated: 17/12/2017 23:05

 Wind from NE
Wind: NE 13 mph , 20 km/h
Temperature: 77°F , 25°C
Dew Point: 75°F , 24°C
Humidity: 94%
Barometer: 1020 hPa
2017/12/18 04:05 MUCL 180405Z AUTO 05011KT 25/24 Q1020
MUCF - Cienfuegos(Civ/M, Cuba
Distance from station: NNE 208mi, 335km
Updated: 17/12/2017 22:58

 Wind from ENE
Wind: ENE 9 mph , 15 km/h
Temperature: 73°F , 23°C
Dew Point: 72°F , 22°C
Humidity: 94%
Barometer: 1021 hPa
2017/12/18 03:58 MUCF 180358Z AUTO 07008KT 23/22 Q1021
 
MKJS - Sangster/Montego Bay, Jamaica
Distance from station: ESE 233mi, 375km
Updated: 17/12/2017 23:00
Few Clouds
Few Clouds
 Wind from ESE
Wind: ESE 10 mph , 17 km/h
Temperature: 81°F , 27°C
Heat Index: 85°F , 29°C
Dew Point: 72°F , 22°C
Humidity: 74%
Barometer: 1017 hPa
Clouds: Few Clouds
Visibility: 6 miles , 10 km
Cloud details: Few Clouds 2400 ft
2017/12/18 04:00 MKJS 180400Z 12009KT 9999 FEW024 27/22 Q1017
MUSC - Santa Clara, Cuba
Distance from station: NNE 242mi, 389km
Updated: 17/12/2017 22:52
Partly cloudy
Partly cloudy
 Wind from ENE
Wind: ENE 6 mph , 9 km/h
Temperature: 73°F , 23°C
Dew Point: 72°F , 22°C
Humidity: 94%
Barometer: 1022 hPa
Clouds: Partly cloudy
Visibility: 6 miles , 9 km
Cloud details: Partly cloudy 3000 ft
2017/12/18 03:52 MUSC 180352Z 07005KT 9000 SCT030 23/22 Q1022
 
MUVR - Varadero, Cuba
Distance from station: N 260mi, 419km
Updated: 17/12/2017 22:50
Partly cloudy
Partly cloudy
 Wind from varies
Wind: varies 2 mph , 4 km/h
Temperature: 73°F , 23°C
Dew Point: 72°F , 22°C
Humidity: 94%
Barometer: 1022 hPa
Clouds: Partly cloudy
Visibility: 6 miles , 9 km
2017/12/18 03:50 MUVR 180350Z VRB02KT 9000 NSC 23/22 Q1022
MUHA - Havana/Jose Mar, Cuba
Distance from station: NNW 264mi, 425km
Updated: 17/12/2017 22:55
Few Clouds
Few Clouds
 Wind from E
Wind: E 5 mph , 7 km/h
Temperature: 70°F , 21°C
Dew Point: 68°F , 20°C
Humidity: 94%
Barometer: 1022 hPa
Clouds: Few Clouds
Visibility: 5 miles , 8 km
Cloud details: Few Clouds 2500 ft
2017/12/18 03:55 MUHA 180355Z 08004KT 8000 FEW025 21/20 Q1022
 
MUCM - Camaguey/Iganci, Cuba
Distance from station: NE 273mi, 439km
Updated: 17/12/2017 22:50
Few Clouds
Few Clouds
 Wind from ENE
Wind: ENE 7 mph , 11 km/h
Temperature: 72°F , 22°C
Dew Point: 70°F , 21°C
Humidity: 94%
Barometer: 1021 hPa
Clouds: Few Clouds
Visibility: 6 miles , 9 km
Cloud details: Few Clouds 2000 ft
2017/12/18 03:50 MUCM 180350Z 07006KT 9000 FEW020 22/21 Q1021
MUMZ - Manzanillo, Cuba
Distance from station: ENE 287mi, 462km
Updated: 11/10/2016 09:50
NOT Current
Partly cloudy
Partly cloudy
 Wind from ENE
Wind: ENE 12 mph , 19 km/h
Temperature: 84°F , 29°C
Heat Index: 89°F , 32°C
Dew Point: 72°F , 22°C
Humidity: 66%
Barometer: 1014 hPa
Clouds: Partly cloudy
Visibility: 6 miles , 9 km
Cloud details: Partly cloudy 2000 ft
2016/10/11 14:50 MUMZ 111450Z 07010KT 9000 SCT020 29/22 Q1014
 
MUCC - Canagua, Cuba
Distance from station: NE 296mi, 476km
Updated: 17/12/2017 22:51
Few Clouds
Few Clouds
 Wind from E
Wind: E 13 mph , 20 km/h
Temperature: 77°F , 25°C
Dew Point: 73°F , 23°C
Humidity: 89%
Barometer: 1021 hPa
Clouds: Few Clouds
Visibility: 6 miles , 9 km
Cloud details: Few Clouds 1800 ft
2017/12/18 03:51 MUCC 180351Z 08011KT 9000 FEW018 25/23 Q1021
MKJP - Kingston/Norman Manley, Jamaica
Distance from station: ESE 315mi, 507km
Updated: 17/12/2017 23:00
Few Clouds
Few Clouds
 Wind from W
Wind: W 7 mph , 11 km/h
Temperature: 79°F , 26°C
Dew Point: 72°F , 22°C
Humidity: 79%
Barometer: 1016 hPa
Clouds: Few Clouds
Visibility: 6 miles , 10 km
Cloud details: Few Clouds 2400 ft
2017/12/18 04:00 MKJP 180400Z 27006KT 9999 FEW024 26/22 Q1016
 
MHPL - Puerto Lempira, Honduras
Distance from station: SSW 318mi, 513km
Updated: 17/12/2017 19:00
NOT Current
Mostly cloudy
Mostly cloudy
 Wind from N
Wind: N 5 mph , 7 km/h
Temperature: 81°F , 27°C
Heat Index: 87°F , 31°C
Dew Point: 75°F , 24°C
Humidity: 84%
Barometer: 1014 hPa
Clouds: Mostly cloudy
Visibility: 6 miles , 10 km
Cloud details: Partly cloudy 2600 ft
Mostly cloudy 8000 ft
2017/12/18 00:00 MHPL 180000Z 36004KT 9999 SCT026 BKN080 27/24 Q1014 HZ
MUHG - Holguin (civ/Mil, Cuba
Distance from station: ENE 345mi, 555km
Updated: 17/12/2017 22:50
Clear
Clear
 Wind from ENE
Wind: ENE 6 mph , 9 km/h
Temperature: 73°F , 23°C
Dew Point: 72°F , 22°C
Humidity: 94%
Barometer: 1020 hPa
Clouds: Clear
Visibility: 5 miles , 8 km
2017/12/18 03:50 MUHG 180350Z 06005KT 8000 SKC 23/22 Q1020